Time,TemperatureF,DewpointF,PressureIn,WindDirection,WindDirectionDegrees,WindSpeedMPH,WindSpeedGustMPH,Humidity,HourlyPrecipIn,Conditions,Clouds,dailyrainin,SoftwareType,DateUTC
2013-01-07 00:02:00,14.0,12.0,30.19,ESE,119,3.0,4.0,90,0.00,,,0.00,,2013-01-07 06:02:00,
2013-01-07 00:12:00,14.0,12.0,30.19,ESE,119,3.0,4.0,90,0.00,,,0.00,,2013-01-07 06:12:00,
2013-01-07 00:22:00,14.0,12.0,30.19,SE,127,1.0,3.0,90,0.00,,,0.00,,2013-01-07 06:22:00,
2013-01-07 00:32:00,15.0,13.0,30.19,SSE,167,4.0,8.0,91,0.00,,,0.00,,2013-01-07 06:32:00,
2013-01-07 00:42:00,15.0,13.0,30.19,SSE,167,4.0,8.0,91,0.00,,,0.00,,2013-01-07 06:42:00,
2013-01-07 00:52:00,16.0,14.0,30.18,SE,141,5.0,9.0,91,0.00,,,0.00,,2013-01-07 06:52:00,
2013-01-07 01:02:00,17.0,14.0,30.17,SE,125,7.0,11.0,89,0.00,,,0.00,,2013-01-07 07:02:00,
2013-01-07 01:12:00,17.0,14.0,30.17,SE,125,7.0,11.0,89,0.00,,,0.00,,2013-01-07 07:12:00,
2013-01-07 01:22:00,17.0,14.0,30.17,SSE,150,5.0,9.0,88,0.00,,,0.00,,2013-01-07 07:22:00,
2013-01-07 01:33:00,16.0,13.0,30.17,SSE,154,3.0,7.0,88,0.00,,,0.00,,2013-01-07 07:33:00,
2013-01-07 01:42:00,16.0,13.0,30.17,SSE,154,3.0,7.0,88,0.00,,,0.00,,2013-01-07 07:42:00,
2013-01-07 01:53:00,17.0,14.0,30.17,SE,139,4.0,6.0,88,0.00,,,0.00,,2013-01-07 07:53:00,
2013-01-07 02:03:00,17.0,14.0,30.16,SE,140,4.0,7.0,88,0.00,,,0.00,,2013-01-07 08:03:00,
2013-01-07 02:12:00,17.0,14.0,30.16,SE,140,4.0,7.0,88,0.00,,,0.00,,2013-01-07 08:12:00,
2013-01-07 02:22:00,16.0,13.0,30.17,SE,136,3.0,4.0,87,0.00,,,0.00,,2013-01-07 08:22:00,
2013-01-07 02:32:00,16.0,13.0,30.17,SE,144,2.0,4.0,88,0.00,,,0.00,,2013-01-07 08:32:00,
2013-01-07 02:42:00,16.0,13.0,30.17,SE,144,2.0,4.0,88,0.00,,,0.00,,2013-01-07 08:42:00,
2013-01-07 02:53:00,18.0,15.0,30.17,SE,130,5.0,9.0,88,0.00,,,0.00,,2013-01-07 08:53:00,
2013-01-07 03:02:00,18.0,15.0,30.17,SSE,158,4.0,7.0,87,0.00,,,0.00,,2013-01-07 09:02:00,
2013-01-07 03:12:00,18.0,15.0,30.17,SSE,158,4.0,7.0,87,0.00,,,0.00,,2013-01-07 09:12:00,
2013-01-07 03:22:00,17.0,14.0,30.17,SSE,154,6.0,7.0,87,0.00,,,0.00,,2013-01-07 09:22:00,
2013-01-07 03:32:00,16.0,13.0,30.17,SSE,167,6.0,8.0,87,0.00,,,0.00,,2013-01-07 09:32:00,
2013-01-07 03:42:00,16.0,13.0,30.17,SSE,167,6.0,8.0,87,0.00,,,0.00,,2013-01-07 09:42:00,
2013-01-07 03:52:00,17.0,14.0,30.16,South,175,7.0,9.0,88,0.00,,,0.00,,2013-01-07 09:52:00,
2013-01-07 04:02:00,17.0,14.0,30.15,SSE,168,7.0,9.0,88,0.00,,,0.00,,2013-01-07 10:02:00,
2013-01-07 04:12:00,18.0,15.0,30.15,SE,136,7.0,11.0,89,0.00,,,0.00,,2013-01-07 10:12:00,
2013-01-07 04:22:00,18.0,15.0,30.15,SE,136,7.0,11.0,89,0.00,,,0.00,,2013-01-07 10:22:00,
2013-01-07 04:32:00,18.0,15.0,30.14,SE,142,7.0,10.0,87,0.00,,,0.00,,2013-01-07 10:32:00,
2013-01-07 04:42:00,18.0,15.0,30.14,SE,142,7.0,10.0,87,0.00,,,0.00,,2013-01-07 10:42:00,
2013-01-07 04:52:00,19.0,16.0,30.14,SSE,149,7.0,12.0,88,0.00,,,0.00,,2013-01-07 10:52:00,
2013-01-07 05:02:00,20.0,17.0,30.13,SE,125,8.0,12.0,88,0.00,,,0.00,,2013-01-07 11:02:00,
2013-01-07 05:12:00,20.0,17.0,30.13,SE,125,8.0,12.0,88,0.00,,,0.00,,2013-01-07 11:12:00,
2013-01-07 05:22:00,20.0,16.0,30.11,SE,143,7.0,12.0,86,0.00,,,0.00,,2013-01-07 11:22:00,
2013-01-07 05:32:00,20.0,17.0,30.11,SSE,148,7.0,12.0,87,0.00,,,0.00,,2013-01-07 11:32:00,
2013-01-07 05:43:00,20.0,17.0,30.11,SSE,148,7.0,12.0,87,0.00,,,0.00,,2013-01-07 11:43:00,
2013-01-07 05:53:00,20.0,17.0,30.10,SSE,162,7.0,11.0,88,0.00,,,0.00,,2013-01-07 11:53:00,
2013-01-07 06:02:00,21.0,18.0,30.09,South,170,10.0,14.0,88,0.00,,,0.00,,2013-01-07 12:02:00,
2013-01-07 06:12:00,22.0,19.0,30.09,SSE,167,10.0,13.0,87,0.00,,,0.00,,2013-01-07 12:12:00,
2013-01-07 06:22:00,22.0,19.0,30.09,SSE,167,10.0,13.0,87,0.00,,,0.00,,2013-01-07 12:22:00,
2013-01-07 06:32:00,22.0,19.0,30.09,SSE,151,10.0,13.0,87,0.00,,,0.00,,2013-01-07 12:32:00,
2013-01-07 06:43:00,22.0,19.0,30.09,SSE,151,10.0,13.0,87,0.00,,,0.00,,2013-01-07 12:43:00,
2013-01-07 06:53:00,22.0,19.0,30.08,SE,140,7.0,12.0,87,0.00,,,0.00,,2013-01-07 12:53:00,
2013-01-07 07:02:00,22.0,19.0,30.08,SSE,163,6.0,10.0,87,0.00,,,0.00,,2013-01-07 13:02:00,
2013-01-07 07:12:00,22.0,19.0,30.08,SSE,163,6.0,10.0,87,0.00,,,0.00,,2013-01-07 13:12:00,
2013-01-07 07:23:00,22.0,19.0,30.08,South,171,6.0,8.0,87,0.00,,,0.00,,2013-01-07 13:23:00,
2013-01-07 07:33:00,22.0,19.0,30.08,South,171,9.0,12.0,87,0.00,,,0.00,,2013-01-07 13:33:00,
2013-01-07 07:42:00,22.0,19.0,30.08,South,171,9.0,12.0,87,0.00,,,0.00,,2013-01-07 13:42:00,
2013-01-07 07:53:00,22.0,19.0,30.08,South,177,10.0,11.0,87,0.00,,,0.00,,2013-01-07 13:53:00,
2013-01-07 08:03:00,24.0,20.0,30.07,South,169,8.0,13.0,85,0.00,,,0.00,,2013-01-07 14:03:00,
2013-01-07 08:12:00,24.0,20.0,30.07,South,169,8.0,13.0,85,0.00,,,0.00,,2013-01-07 14:12:00,
2013-01-07 08:22:00,25.0,21.0,30.06,South,182,10.0,16.0,84,0.00,,,0.00,,2013-01-07 14:22:00,
2013-01-07 08:33:00,26.0,22.0,30.06,SSE,165,12.0,16.0,83,0.00,,,0.00,,2013-01-07 14:33:00,
2013-01-07 08:42:00,26.0,22.0,30.06,SSE,165,12.0,16.0,83,0.00,,,0.00,,2013-01-07 14:42:00,
2013-01-07 08:53:00,26.0,22.0,30.06,SSE,165,12.0,16.0,83,0.00,,,0.00,,2013-01-07 14:53:00,
2013-01-07 09:03:00,27.0,22.0,30.05,SSE,147,10.0,16.0,82,0.00,,,0.00,,2013-01-07 15:03:00,
2013-01-07 09:12:00,27.0,22.0,30.05,SSE,147,10.0,16.0,82,0.00,,,0.00,,2013-01-07 15:12:00,
2013-01-07 09:22:00,27.0,22.0,30.05,SSE,147,10.0,16.0,82,0.00,,,0.00,,2013-01-07 15:22:00,
2013-01-07 09:33:00,29.0,24.0,30.06,South,171,9.0,14.0,80,0.00,,,0.00,,2013-01-07 15:33:00,
2013-01-07 09:42:00,29.0,24.0,30.06,South,171,9.0,14.0,80,0.00,,,0.00,,2013-01-07 15:42:00,
2013-01-07 09:53:00,31.0,25.0,30.05,SSE,167,12.0,17.0,79,0.00,,,0.00,,2013-01-07 15:53:00,
2013-01-07 10:02:00,31.0,25.0,30.06,SSE,167,12.0,17.0,79,0.00,,,0.00,,2013-01-07 16:02:00,
2013-01-07 10:12:00,31.0,25.0,30.06,SSE,167,12.0,17.0,79,0.00,,,0.00,,2013-01-07 16:12:00,
2013-01-07 10:22:00,32.0,26.0,30.06,South,171,12.0,18.0,79,0.00,,,0.00,,2013-01-07 16:22:00,
2013-01-07 10:33:00,33.0,27.0,30.05,SSE,166,14.0,19.0,78,0.00,,,0.00,,2013-01-07 16:33:00,
2013-01-07 10:43:00,33.0,27.0,30.05,SSE,166,14.0,19.0,78,0.00,,,0.00,,2013-01-07 16:43:00,
2013-01-07 10:53:00,34.0,28.0,30.05,South,173,16.0,22.0,77,0.00,,,0.00,,2013-01-07 16:53:00,
2013-01-07 11:02:00,34.0,28.0,30.04,SSE,165,13.0,21.0,78,0.00,,,0.00,,2013-01-07 17:02:00,
2013-01-07 11:12:00,34.0,28.0,30.04,SSE,165,13.0,21.0,78,0.00,,,0.00,,2013-01-07 17:12:00,
2013-01-07 11:23:00,35.0,29.0,30.03,South,170,15.0,19.0,78,0.00,,,0.00,,2013-01-07 17:23:00,
2013-01-07 11:33:00,36.0,29.0,30.03,South,175,13.0,21.0,77,0.00,,,0.00,,2013-01-07 17:33:00,
2013-01-07 11:42:00,36.0,29.0,30.03,South,175,13.0,21.0,77,0.00,,,0.00,,2013-01-07 17:42:00,
2013-01-07 11:53:00,38.0,30.0,30.03,South,183,7.0,11.0,74,0.00,,,0.00,,2013-01-07 17:53:00,
2013-01-07 12:03:00,38.0,30.0,30.02,South,184,9.0,14.0,74,0.00,,,0.00,,2013-01-07 18:03:00,
2013-01-07 12:12:00,38.0,30.0,30.02,South,184,9.0,14.0,74,0.00,,,0.00,,2013-01-07 18:12:00,
2013-01-07 12:23:00,37.0,30.0,30.01,SSW,192,9.0,18.0,76,0.01,,,0.01,,2013-01-07 18:23:00,
2013-01-07 12:32:00,38.0,31.0,30.01,SSW,198,8.0,13.0,75,0.01,,,0.01,,2013-01-07 18:32:00,
2013-01-07 12:42:00,38.0,31.0,30.01,SSW,198,8.0,13.0,75,0.01,,,0.01,,2013-01-07 18:42:00,
2013-01-07 12:53:00,38.0,31.0,30.01,SSW,198,8.0,13.0,75,0.01,,,0.01,,2013-01-07 18:53:00,
2013-01-07 13:03:00,38.0,31.0,29.98,South,184,11.0,16.0,77,0.01,,,0.01,,2013-01-07 19:03:00,
2013-01-07 13:12:00,38.0,31.0,29.98,South,184,11.0,16.0,77,0.01,,,0.01,,2013-01-07 19:12:00,
2013-01-07 13:22:00,38.0,31.0,29.98,SSE,163,8.0,13.0,77,0.00,,,0.01,,2013-01-07 19:22:00,
2013-01-07 13:33:00,38.0,31.0,29.97,South,183,9.0,13.0,77,0.00,,,0.01,,2013-01-07 19:33:00,
2013-01-07 13:42:00,38.0,31.0,29.97,South,183,9.0,13.0,77,0.00,,,0.01,,2013-01-07 19:42:00,
2013-01-07 13:53:00,38.0,31.0,29.97,South,183,9.0,13.0,77,0.00,,,0.01,,2013-01-07 19:53:00,
2013-01-07 14:03:00,39.0,32.0,29.97,South,191,6.0,10.0,77,0.01,,,0.02,,2013-01-07 20:03:00,
2013-01-07 14:12:00,39.0,32.0,29.97,South,191,6.0,10.0,77,0.01,,,0.02,,2013-01-07 20:12:00,
2013-01-07 14:23:00,39.0,32.0,29.97,South,177,5.0,11.0,77,0.01,,,0.02,,2013-01-07 20:23:00,
2013-01-07 14:33:00,40.0,33.0,29.97,South,177,4.0,7.0,76,0.00,,,0.02,,2013-01-07 20:33:00,
2013-01-07 14:42:00,40.0,33.0,29.97,South,177,4.0,7.0,76,0.00,,,0.02,,2013-01-07 20:42:00,
2013-01-07 14:53:00,39.0,33.0,29.97,SSE,166,4.0,6.0,79,0.00,,,0.02,,2013-01-07 20:53:00,
2013-01-07 15:02:00,39.0,33.0,29.98,South,169,4.0,6.0,80,0.00,,,0.02,,2013-01-07 21:02:00,
2013-01-07 15:12:00,39.0,33.0,29.98,South,169,4.0,6.0,80,0.00,,,0.02,,2013-01-07 21:12:00,
2013-01-07 15:22:00,39.0,33.0,29.98,South,173,4.0,5.0,80,0.00,,,0.02,,2013-01-07 21:22:00,
2013-01-07 15:33:00,39.0,33.0,29.98,South,173,4.0,5.0,80,0.00,,,0.02,,2013-01-07 21:33:00,
2013-01-07 15:42:00,39.0,33.0,29.98,South,173,4.0,5.0,80,0.00,,,0.02,,2013-01-07 21:42:00,
2013-01-07 15:52:00,38.0,33.0,29.98,SSW,192,3.0,6.0,82,0.00,,,0.02,,2013-01-07 21:52:00,
2013-01-07 16:03:00,37.0,32.0,29.98,South,171,3.0,4.0,83,0.00,,,0.02,,2013-01-07 22:03:00,
2013-01-07 16:12:00,37.0,32.0,29.98,South,171,3.0,4.0,83,0.00,,,0.02,,2013-01-07 22:12:00,
2013-01-07 16:22:00,37.0,33.0,29.98,South,177,3.0,4.0,84,0.00,,,0.02,,2013-01-07 22:22:00,
2013-01-07 16:33:00,36.0,32.0,29.98,South,173,2.0,4.0,84,0.00,,,0.02,,2013-01-07 22:33:00,
2013-01-07 16:42:00,36.0,32.0,29.98,South,173,2.0,4.0,84,0.00,,,0.02,,2013-01-07 22:42:00,
2013-01-07 16:53:00,35.0,31.0,29.98,South,176,1.0,3.0,85,0.00,,,0.02,,2013-01-07 22:53:00,
2013-01-07 17:02:00,34.0,30.0,29.98,South,177,1.0,2.0,86,0.00,,,0.02,,2013-01-07 23:02:00,
2013-01-07 17:12:00,34.0,30.0,29.98,South,177,1.0,2.0,86,0.00,,,0.02,,2013-01-07 23:12:00,
2013-01-07 17:22:00,33.0,30.0,29.98,South,177,2.0,3.0,88,0.00,,,0.02,,2013-01-07 23:22:00,
2013-01-07 17:32:00,33.0,30.0,29.98,South,171,2.0,4.0,88,0.00,,,0.02,,2013-01-07 23:32:00,
2013-01-07 17:42:00,33.0,30.0,29.98,South,171,2.0,4.0,88,0.00,,,0.02,,2013-01-07 23:42:00,
2013-01-07 17:53:00,33.0,30.0,29.98,South,173,0.0,3.0,88,0.00,,,0.02,,2013-01-07 23:53:00,
2013-01-07 18:02:00,32.0,29.0,29.98,South,173,1.0,3.0,88,0.00,,,0.02,,2013-01-08 00:02:00,
2013-01-07 18:12:00,32.0,29.0,29.98,South,173,1.0,3.0,88,0.00,,,0.02,,2013-01-08 00:12:00,
2013-01-07 18:22:00,32.0,29.0,29.98,South,173,1.0,2.0,89,0.00,,,0.02,,2013-01-08 00:22:00,
2013-01-07 18:33:00,32.0,29.0,29.98,South,189,0.0,4.0,88,0.00,,,0.02,,2013-01-08 00:33:00,
2013-01-07 18:42:00,32.0,29.0,29.98,South,189,0.0,4.0,88,0.00,,,0.02,,2013-01-08 00:42:00,
2013-01-07 18:53:00,31.0,28.0,29.98,South,174,1.0,3.0,89,0.00,,,0.02,,2013-01-08 00:53:00,
2013-01-07 19:02:00,31.0,28.0,29.98,South,175,2.0,4.0,90,0.00,,,0.02,,2013-01-08 01:02:00,
2013-01-07 19:12:00,31.0,28.0,29.98,South,175,2.0,4.0,90,0.00,,,0.02,,2013-01-08 01:12:00,
2013-01-07 19:22:00,31.0,28.0,29.98,South,180,3.0,5.0,90,0.00,,,0.02,,2013-01-08 01:22:00,
2013-01-07 19:32:00,31.0,28.0,29.98,SE,142,1.0,3.0,88,0.00,,,0.02,,2013-01-08 01:32:00,
2013-01-07 19:42:00,31.0,28.0,29.98,SE,142,1.0,3.0,88,0.00,,,0.02,,2013-01-08 01:42:00,
2013-01-07 19:52:00,32.0,29.0,29.98,SE,137,0.0,1.0,87,0.00,,,0.02,,2013-01-08 01:52:00,
2013-01-07 20:02:00,31.0,28.0,29.98,SE,137,0.0,1.0,87,0.00,,,0.02,,2013-01-08 02:02:00,
2013-01-07 20:12:00,31.0,28.0,29.98,SE,137,0.0,1.0,87,0.00,,,0.02,,2013-01-08 02:12:00,
2013-01-07 20:22:00,30.0,27.0,29.99,East,94,2.0,3.0,89,0.00,,,0.02,,2013-01-08 02:22:00,
2013-01-07 20:32:00,29.0,26.0,29.99,SE,134,0.0,0.0,89,0.00,,,0.02,,2013-01-08 02:32:00,
2013-01-07 20:42:00,29.0,26.0,29.99,SE,134,0.0,0.0,89,0.00,,,0.02,,2013-01-08 02:42:00,
2013-01-07 20:53:00,30.0,27.0,29.99,West,281,1.0,3.0,90,0.00,,,0.02,,2013-01-08 02:53:00,
2013-01-07 21:03:00,29.0,26.0,29.99,West,278,0.0,0.0,88,0.00,,,0.02,,2013-01-08 03:03:00,
2013-01-07 21:12:00,29.0,26.0,29.99,West,278,0.0,0.0,88,0.00,,,0.02,,2013-01-08 03:12:00,
2013-01-07 21:22:00,27.0,24.0,29.99,SE,138,0.0,2.0,90,0.00,,,0.02,,2013-01-08 03:22:00,
2013-01-07 21:32:00,27.0,24.0,29.98,East,88,1.0,2.0,90,0.00,,,0.02,,2013-01-08 03:32:00,
2013-01-07 21:42:00,27.0,24.0,29.98,East,88,1.0,2.0,90,0.00,,,0.02,,2013-01-08 03:42:00,
2013-01-07 21:53:00,26.0,23.0,29.97,South,175,2.0,4.0,89,0.00,,,0.02,,2013-01-08 03:53:00,
2013-01-07 22:02:00,27.0,25.0,29.98,South,175,0.0,3.0,92,0.00,,,0.02,,2013-01-08 04:02:00,
2013-01-07 22:12:00,27.0,25.0,29.98,South,175,0.0,3.0,92,0.00,,,0.02,,2013-01-08 04:12:00,
2013-01-07 22:22:00,27.0,25.0,29.97,SSE,148,2.0,4.0,91,0.00,,,0.02,,2013-01-08 04:22:00,
2013-01-07 22:32:00,27.0,24.0,29.98,South,180,3.0,4.0,90,0.00,,,0.02,,2013-01-08 04:32:00,
2013-01-07 22:42:00,27.0,24.0,29.98,South,180,3.0,4.0,90,0.00,,,0.02,,2013-01-08 04:42:00,
2013-01-07 22:52:00,26.0,23.0,29.98,SSE,167,3.0,4.0,90,0.00,,,0.02,,2013-01-08 04:52:00,
2013-01-07 23:03:00,26.0,23.0,29.98,SSE,163,3.0,4.0,90,0.00,,,0.02,,2013-01-08 05:03:00,
2013-01-07 23:12:00,26.0,23.0,29.98,SSE,163,3.0,4.0,90,0.00,,,0.02,,2013-01-08 05:12:00,
2013-01-07 23:22:00,26.0,23.0,29.98,SSE,167,4.0,5.0,90,0.00,,,0.02,,2013-01-08 05:22:00,
2013-01-07 23:33:00,25.0,23.0,29.97,South,174,1.0,4.0,91,0.00,,,0.02,,2013-01-08 05:33:00,
2013-01-07 23:42:00,25.0,23.0,29.97,South,174,1.0,4.0,91,0.00,,,0.02,,2013-01-08 05:42:00,
2013-01-07 23:53:00,26.0,24.0,29.98,South,174,1.0,2.0,91,0.00,,,0.02,,2013-01-08 05:53:00,